createdAt,value
2019-05-12T00:00:43.674Z,0.00
2019-05-12T00:01:43.697Z,0.00
2019-05-12T00:02:43.703Z,0.00
2019-05-12T00:03:43.745Z,0.00
2019-05-12T00:04:43.740Z,0.00
2019-05-12T00:05:43.747Z,0.00
2019-05-12T00:06:43.771Z,0.00
2019-05-12T00:07:43.781Z,0.00
2019-05-12T00:08:43.793Z,0.00
2019-05-12T00:09:43.806Z,0.00
2019-05-12T00:10:43.823Z,0.00
2019-05-12T00:11:43.844Z,0.00
2019-05-12T00:12:43.853Z,0.00
2019-05-12T00:13:43.871Z,0.00
2019-05-12T00:14:43.885Z,0.00
2019-05-12T00:15:43.899Z,0.00
2019-05-12T00:16:43.918Z,0.00
2019-05-12T00:17:44.069Z,0.00
2019-05-12T00:18:43.945Z,0.00
2019-05-12T00:19:43.965Z,0.00
2019-05-12T00:20:43.976Z,0.00
2019-05-12T00:21:43.990Z,0.00
2019-05-12T00:22:44.006Z,0.00
2019-05-12T00:23:44.027Z,0.00
2019-05-12T00:24:44.043Z,0.00
2019-05-12T00:25:44.050Z,0.00
2019-05-12T00:26:44.066Z,0.00
2019-05-12T00:27:44.081Z,0.00
2019-05-12T00:28:44.097Z,0.00
2019-05-12T00:29:44.112Z,0.00
2019-05-12T00:30:44.127Z,0.00
2019-05-12T00:31:44.147Z,0.00
2019-05-12T00:32:44.162Z,0.00
2019-05-12T00:33:44.169Z,0.00
2019-05-12T00:34:44.188Z,0.00
2019-05-12T00:35:44.202Z,0.00
2019-05-12T00:36:44.220Z,0.00
2019-05-12T00:37:44.242Z,0.00
2019-05-12T00:38:44.263Z,0.00
2019-05-12T00:39:44.298Z,0.00
2019-05-12T00:40:44.291Z,0.00
2019-05-12T00:41:44.666Z,0.00
2019-05-12T00:42:44.309Z,0.00
2019-05-12T00:43:44.444Z,0.00
2019-05-12T00:44:44.337Z,0.00
2019-05-12T00:45:44.350Z,0.00
2019-05-12T00:46:44.367Z,0.00
2019-05-12T00:47:44.380Z,0.00
2019-05-12T00:48:44.401Z,0.00
2019-05-12T00:49:44.410Z,0.00
2019-05-12T00:50:44.424Z,0.00
2019-05-12T00:51:44.449Z,0.00
2019-05-12T00:52:44.456Z,0.00
2019-05-12T00:53:44.470Z,0.00
2019-05-12T00:54:44.485Z,0.00
2019-05-12T00:55:44.502Z,0.00
2019-05-12T00:56:44.519Z,0.00
2019-05-12T00:57:44.530Z,0.00
2019-05-12T00:58:44.541Z,0.00
2019-05-12T00:59:44.560Z,0.00
2019-05-12T01:00:44.579Z,0.00
2019-05-12T01:01:44.590Z,0.00
2019-05-12T01:02:44.602Z,0.00
2019-05-12T01:03:44.614Z,0.00
2019-05-12T01:04:44.636Z,0.00
2019-05-12T01:05:44.655Z,0.00
2019-05-12T01:06:44.660Z,0.00
2019-05-12T01:07:44.674Z,0.00
2019-05-12T01:08:44.703Z,0.00
2019-05-12T01:09:44.710Z,0.00
2019-05-12T01:10:44.725Z,0.00
2019-05-12T01:11:44.745Z,0.00
2019-05-12T01:12:44.763Z,0.00
2019-05-12T01:13:44.769Z,0.00
2019-05-12T01:14:44.779Z,0.00
2019-05-12T01:15:44.792Z,0.00
2019-05-12T01:16:44.809Z,0.00
2019-05-12T01:17:44.831Z,0.00
2019-05-12T01:18:44.879Z,0.00
2019-05-12T01:19:44.849Z,0.00
2019-05-12T01:20:44.871Z,0.00
2019-05-12T01:21:44.881Z,0.00
2019-05-12T01:22:44.893Z,0.00
2019-05-12T01:23:56.395Z,0.00
2019-05-12T01:24:44.927Z,0.00
2019-05-12T01:25:44.937Z,0.00
2019-05-12T01:26:44.952Z,0.00
2019-05-12T01:27:44.965Z,0.00
2019-05-12T01:28:44.985Z,0.00
2019-05-12T01:29:44.995Z,0.00
2019-05-12T01:30:45.015Z,0.00
2019-05-12T01:31:45.023Z,0.00
2019-05-12T01:32:45.050Z,0.00
2019-05-12T01:33:45.056Z,0.00
2019-05-12T01:34:45.067Z,0.00
2019-05-12T01:35:45.083Z,0.00
2019-05-12T01:36:45.099Z,0.00
2019-05-12T01:37:45.112Z,0.00
2019-05-12T01:38:45.133Z,0.00
2019-05-12T01:39:45.145Z,0.00
2019-05-12T01:40:45.154Z,0.00
2019-05-12T01:41:45.169Z,0.00
2019-05-12T01:42:45.182Z,0.00
2019-05-12T01:43:45.211Z,0.00
2019-05-12T01:44:45.215Z,0.00
2019-05-12T01:45:45.241Z,0.00
2019-05-12T01:46:45.248Z,0.00
2019-05-12T01:47:45.259Z,0.00
2019-05-12T01:48:45.272Z,0.00
2019-05-12T01:49:45.287Z,0.00
2019-05-12T01:50:47.448Z,0.00
2019-05-12T01:51:47.540Z,0.00
2019-05-12T01:52:47.701Z,0.00
2019-05-12T01:53:45.347Z,0.00
2019-05-12T01:54:45.369Z,0.00
2019-05-12T01:55:45.376Z,0.00
2019-05-12T01:56:45.388Z,0.00
2019-05-12T01:57:45.410Z,0.00
2019-05-12T01:58:45.418Z,0.00
2019-05-12T01:59:45.436Z,0.00
2019-05-12T02:00:45.445Z,0.00
2019-05-12T02:01:45.470Z,0.00
2019-05-12T02:02:47.895Z,0.00
2019-05-12T02:03:45.491Z,0.00
2019-05-12T02:04:45.512Z,0.00
2019-05-12T02:05:45.526Z,0.00
2019-05-12T02:06:45.537Z,0.00
2019-05-12T02:07:47.816Z,0.00
2019-05-12T02:08:47.654Z,0.00
2019-05-12T02:09:48.007Z,0.00
2019-05-12T02:10:47.978Z,0.00
2019-05-12T02:11:45.613Z,0.00
2019-05-12T02:12:45.628Z,0.00
2019-05-12T02:13:45.638Z,0.00
2019-05-12T02:14:45.650Z,0.00
2019-05-12T02:15:45.667Z,0.00
2019-05-12T02:16:47.601Z,0.00
2019-05-12T02:17:47.972Z,0.00
2019-05-12T02:18:45.711Z,0.00
2019-05-12T02:19:47.991Z,0.00
2019-05-12T02:20:45.739Z,0.00
2019-05-12T02:21:45.753Z,0.00
2019-05-12T02:22:47.781Z,0.00
2019-05-12T02:23:47.668Z,0.00
2019-05-12T02:24:47.770Z,0.00
2019-05-12T02:25:48.136Z,0.00
2019-05-12T02:26:45.830Z,0.00
2019-05-12T02:27:47.623Z,0.00
2019-05-12T02:28:47.905Z,0.00
2019-05-12T02:29:48.038Z,0.00
2019-05-12T02:30:45.887Z,0.00
2019-05-12T02:31:45.923Z,0.00
2019-05-12T02:32:52.478Z,0.00
2019-05-12T02:33:45.936Z,0.00
2019-05-12T02:34:45.951Z,0.00
2019-05-12T02:35:45.963Z,0.00
2019-05-12T02:36:45.994Z,0.00
2019-05-12T02:37:45.994Z,0.00
2019-05-12T02:38:46.006Z,0.00
2019-05-12T02:39:46.020Z,0.00
2019-05-12T02:40:46.038Z,0.00
2019-05-12T02:41:46.057Z,0.00
2019-05-12T02:42:46.672Z,0.00
2019-05-12T02:43:46.176Z,0.00
2019-05-12T02:44:46.107Z,0.00
2019-05-12T02:45:46.113Z,0.00
2019-05-12T02:46:46.132Z,0.00
2019-05-12T02:47:46.140Z,0.00
2019-05-12T02:48:46.162Z,0.00
2019-05-12T02:49:46.185Z,0.00
2019-05-12T02:50:46.196Z,0.00
2019-05-12T02:51:46.203Z,0.00
2019-05-12T02:52:46.222Z,0.00
2019-05-12T02:53:47.279Z,4.00
2019-05-12T02:54:55.279Z,4.00
2019-05-12T02:55:46.270Z,4.00
2019-05-12T02:56:46.285Z,4.00
2019-05-12T02:57:46.295Z,4.00
2019-05-12T02:58:46.304Z,4.00
2019-05-12T02:59:46.325Z,4.00
2019-05-12T03:00:46.342Z,4.00
2019-05-12T03:01:46.357Z,0.00
2019-05-12T03:02:46.369Z,0.00
2019-05-12T03:03:46.383Z,4.00
2019-05-12T03:04:46.398Z,4.00
2019-05-12T03:05:46.418Z,4.00
2019-05-12T03:06:46.428Z,4.00
2019-05-12T03:07:46.447Z,4.00
2019-05-12T03:08:46.466Z,4.00
2019-05-12T03:09:46.474Z,4.00
2019-05-12T03:10:46.490Z,8.00
2019-05-12T03:11:46.506Z,8.00
2019-05-12T03:12:46.526Z,12.00
2019-05-12T03:13:46.535Z,12.00
2019-05-12T03:14:46.552Z,12.00
2019-05-12T03:15:46.563Z,16.00
2019-05-12T03:16:46.581Z,16.00
2019-05-12T03:17:46.594Z,16.00
2019-05-12T03:18:46.613Z,20.00
2019-05-12T03:19:46.631Z,20.00
2019-05-12T03:20:46.652Z,20.00
2019-05-12T03:21:46.657Z,24.00
2019-05-12T03:22:46.674Z,28.00
2019-05-12T03:23:46.688Z,32.00
2019-05-12T03:25:05.942Z,40.00
2019-05-12T03:25:46.725Z,48.00
2019-05-12T03:26:46.734Z,52.00
2019-05-12T03:27:46.759Z,56.00
2019-05-12T03:28:46.761Z,60.00
2019-05-12T03:29:46.772Z,68.00
2019-05-12T03:30:48.847Z,76.00
2019-05-12T03:31:48.796Z,100.00
2019-05-12T03:32:47.839Z,120.00
2019-05-12T03:33:52.915Z,128.00
2019-05-12T03:34:47.784Z,148.00
2019-05-12T03:35:53.035Z,152.00
2019-05-12T03:36:51.324Z,180.00
2019-05-12T03:37:47.089Z,200.00
2019-05-12T03:38:46.983Z,228.00
2019-05-12T03:39:46.956Z,272.00
2019-05-12T03:40:46.948Z,272.00
2019-05-12T03:41:46.955Z,280.00
2019-05-12T03:42:46.973Z,296.00
2019-05-12T03:43:47.009Z,312.00
2019-05-12T03:44:47.004Z,356.00
2019-05-12T03:45:47.021Z,408.00
2019-05-12T03:46:47.037Z,484.00
2019-05-12T03:47:47.051Z,536.00
2019-05-12T03:48:47.065Z,580.00
2019-05-12T03:49:47.136Z,660.00
2019-05-12T03:50:47.100Z,720.00
2019-05-12T03:51:47.107Z,804.00
2019-05-12T03:52:47.124Z,904.00
2019-05-12T03:53:47.182Z,992.00
2019-05-12T03:54:47.155Z,1064.00
2019-05-12T03:55:47.479Z,1164.00
2019-05-12T03:56:47.183Z,1280.00
2019-05-12T03:57:47.202Z,1384.00
2019-05-12T03:58:47.225Z,1452.00
2019-05-12T03:59:47.233Z,1508.00
2019-05-12T04:00:47.255Z,1556.00
2019-05-12T04:01:47.263Z,1640.00
2019-05-12T04:02:47.277Z,1744.00
2019-05-12T04:03:47.293Z,1756.00
2019-05-12T04:04:47.314Z,1792.00
2019-05-12T04:05:47.323Z,1780.00
2019-05-12T04:06:47.344Z,1872.00
2019-05-12T04:07:47.354Z,1964.00
2019-05-12T04:08:47.368Z,2156.00
2019-05-12T04:09:47.384Z,2308.00
2019-05-12T04:10:47.397Z,2380.00
2019-05-12T04:11:47.417Z,2564.00
2019-05-12T04:12:47.435Z,2564.00
2019-05-12T04:13:47.444Z,2508.00
2019-05-12T04:14:47.464Z,2408.00
2019-05-12T04:15:47.479Z,2336.00
2019-05-12T04:16:47.496Z,2236.00
2019-05-12T04:17:47.510Z,2224.00
2019-05-12T04:18:47.522Z,2288.00
2019-05-12T04:19:47.536Z,2676.00
2019-05-12T04:20:47.552Z,2856.00
2019-05-12T04:21:47.574Z,3052.00
2019-05-12T04:22:47.577Z,3064.00
2019-05-12T04:23:47.599Z,3056.00
2019-05-12T04:24:47.611Z,3208.00
2019-05-12T04:25:52.887Z,3240.00
2019-05-12T04:26:47.639Z,3376.00
2019-05-12T04:27:47.659Z,3372.00
2019-05-12T04:28:47.677Z,3304.00
2019-05-12T04:29:47.688Z,2980.00
2019-05-12T04:30:47.751Z,2904.00
2019-05-12T04:31:47.722Z,2780.00
2019-05-12T04:32:47.735Z,2712.00
2019-05-12T04:33:47.755Z,2708.00
2019-05-12T04:34:47.763Z,2972.00
2019-05-12T04:35:47.786Z,3016.00
2019-05-12T04:36:47.794Z,3116.00
2019-05-12T04:37:47.810Z,3064.00
2019-05-12T04:38:47.828Z,3156.00
2019-05-12T04:39:47.875Z,3100.00
2019-05-12T04:40:47.856Z,3284.00
2019-05-12T04:41:47.894Z,3564.00
2019-05-12T04:42:47.900Z,3444.00
2019-05-12T04:43:47.909Z,4280.00
2019-05-12T04:44:47.930Z,4960.00
2019-05-12T04:45:47.953Z,5228.00
2019-05-12T04:46:47.946Z,5588.00
2019-05-12T04:47:47.962Z,6240.00
2019-05-12T04:48:47.981Z,6448.00
2019-05-12T04:49:47.993Z,6852.00
2019-05-12T04:50:48.028Z,8580.00
2019-05-12T04:51:48.030Z,7060.00
2019-05-12T04:52:48.035Z,10132.00
2019-05-12T04:53:48.066Z,10072.00
2019-05-12T04:54:48.078Z,7708.00
2019-05-12T04:56:06.274Z,23968.00
2019-05-12T04:56:48.113Z,8688.00
2019-05-12T04:57:48.120Z,6960.00
2019-05-12T04:58:48.138Z,6884.00
2019-05-12T04:59:48.149Z,7320.00
2019-05-12T05:00:48.165Z,7760.00
2019-05-12T05:01:48.181Z,12592.00
2019-05-12T05:02:48.195Z,6640.00
2019-05-12T05:03:48.218Z,6776.00
2019-05-12T05:04:48.224Z,31488.00
2019-05-12T05:05:48.238Z,42464.00
2019-05-12T05:06:48.259Z,14132.00
2019-05-12T05:07:48.275Z,7484.00
2019-05-12T05:08:48.303Z,6636.00
2019-05-12T05:09:48.305Z,12200.00
2019-05-12T05:10:48.322Z,8404.00
2019-05-12T05:11:48.344Z,8220.00
2019-05-12T05:12:48.356Z,8236.00
2019-05-12T05:13:48.369Z,7964.00
2019-05-12T05:14:48.385Z,7288.00
2019-05-12T05:15:48.403Z,7952.00
2019-05-12T05:16:48.422Z,8060.00
2019-05-12T05:17:48.435Z,7452.00
2019-05-12T05:18:48.452Z,7080.00
2019-05-12T05:19:48.464Z,7772.00
2019-05-12T05:20:48.481Z,7312.00
2019-05-12T05:21:48.501Z,7504.00
2019-05-12T05:22:48.509Z,6916.00
2019-05-12T05:23:48.528Z,6536.00
2019-05-12T05:24:48.546Z,8072.00
2019-05-12T05:25:48.566Z,32032.00
2019-05-12T05:26:48.580Z,40032.00
2019-05-12T05:27:48.595Z,10092.00
2019-05-12T05:28:48.614Z,19680.00
2019-05-12T05:29:48.631Z,39584.00
2019-05-12T05:30:48.643Z,12448.00
2019-05-12T05:31:48.660Z,16488.00
2019-05-12T05:32:48.670Z,10808.00
2019-05-12T05:33:48.698Z,18432.00
2019-05-12T05:34:53.689Z,9396.00
2019-05-12T05:35:48.723Z,8108.00
2019-05-12T05:36:51.092Z,10192.00
2019-05-12T05:37:48.771Z,8776.00
2019-05-12T05:38:51.172Z,8160.00
2019-05-12T05:39:49.797Z,11952.00
2019-05-12T05:40:48.821Z,9660.00
2019-05-12T05:41:50.935Z,9976.00
2019-05-12T05:42:48.846Z,15432.00
2019-05-12T05:43:54.258Z,14672.00
2019-05-12T05:44:48.872Z,12692.00
2019-05-12T05:45:48.897Z,9004.00
2019-05-12T05:46:50.298Z,9348.00
2019-05-12T05:47:49.179Z,14020.00
2019-05-12T05:48:48.941Z,11712.00
2019-05-12T05:49:48.958Z,10756.00
2019-05-12T05:50:48.980Z,11540.00
2019-05-12T05:51:54.339Z,12316.00
2019-05-12T05:52:49.013Z,10508.00
2019-05-12T05:53:50.178Z,11500.00
2019-05-12T05:54:49.047Z,11528.00
2019-05-12T05:55:50.409Z,10908.00
2019-05-12T05:56:58.440Z,11424.00
2019-05-12T05:57:49.097Z,12268.00
2019-05-12T05:58:51.914Z,12512.00
2019-05-12T05:59:49.133Z,15808.00
2019-05-12T06:00:54.816Z,16672.00
2019-05-12T06:01:51.949Z,12656.00
2019-05-12T06:02:49.192Z,15760.00
2019-05-12T06:03:49.199Z,12600.00
2019-05-12T06:04:49.898Z,13512.00
2019-05-12T06:05:49.240Z,14236.00
2019-05-12T06:06:52.796Z,13932.00
2019-05-12T06:07:49.267Z,15484.00
2019-05-12T06:08:49.294Z,14456.00
2019-05-12T06:09:49.313Z,14396.00
2019-05-12T06:10:49.339Z,14196.00
2019-05-12T06:11:49.344Z,16164.00
2019-05-12T06:12:50.945Z,13464.00
2019-05-12T06:13:49.385Z,12364.00
2019-05-12T06:14:55.207Z,11640.00
2019-05-12T06:15:49.418Z,11380.00
2019-05-12T06:16:49.435Z,12164.00
2019-05-12T06:17:49.453Z,11304.00
2019-05-12T06:18:49.470Z,11028.00
2019-05-12T06:19:49.482Z,10272.00
2019-05-12T06:20:49.509Z,10488.00
2019-05-12T06:21:49.525Z,10936.00
2019-05-12T06:22:54.570Z,10324.00
2019-05-12T06:23:49.558Z,10416.00
2019-05-12T06:24:54.859Z,9924.00
2019-05-12T06:25:51.609Z,9416.00
2019-05-12T06:26:57.657Z,9372.00
2019-05-12T06:27:51.130Z,8952.00
2019-05-12T06:28:49.656Z,9120.00
2019-05-12T06:29:54.447Z,10144.00
2019-05-12T06:30:50.356Z,11272.00
2019-05-12T06:31:49.717Z,11112.00
2019-05-12T06:32:51.804Z,10928.00
2019-05-12T06:33:49.746Z,11348.00
2019-05-12T06:34:50.833Z,12372.00
2019-05-12T06:35:49.784Z,11556.00
2019-05-12T06:36:49.796Z,11376.00
2019-05-12T06:37:57.762Z,12884.00
2019-05-12T06:38:49.851Z,12900.00
2019-05-12T06:39:51.021Z,13204.00
2019-05-12T06:40:49.892Z,12356.00
2019-05-12T06:41:49.877Z,11388.00
2019-05-12T06:42:53.971Z,10276.00
2019-05-12T06:43:49.945Z,9492.00
2019-05-12T06:44:54.893Z,8552.00
2019-05-12T06:45:49.967Z,9504.00
2019-05-12T06:46:53.574Z,10980.00
2019-05-12T06:47:51.733Z,11240.00
2019-05-12T06:48:50.022Z,10160.00
2019-05-12T06:49:56.458Z,9960.00
2019-05-12T06:50:50.065Z,10504.00
2019-05-12T06:51:53.783Z,11472.00
2019-05-12T06:52:50.076Z,11184.00
2019-05-12T06:53:50.091Z,10928.00
2019-05-12T06:54:56.425Z,12360.00
2019-05-12T06:55:50.125Z,12688.00
2019-05-12T06:56:55.291Z,12604.00
2019-05-12T06:57:50.406Z,11336.00
2019-05-12T06:58:50.182Z,10760.00
2019-05-12T06:59:51.425Z,11440.00
2019-05-12T07:00:50.224Z,11328.00
2019-05-12T07:01:54.966Z,11044.00
2019-05-12T07:02:54.739Z,13112.00
2019-05-12T07:03:50.271Z,10988.00
2019-05-12T07:04:56.616Z,10672.00
2019-05-12T07:05:50.303Z,12464.00
2019-05-12T07:06:56.160Z,12436.00
2019-05-12T07:07:50.340Z,12436.00
2019-05-12T07:09:02.285Z,11872.00
2019-05-12T07:09:53.747Z,11548.00
2019-05-12T07:10:59.782Z,11148.00
2019-05-12T07:12:01.765Z,12240.00
2019-05-12T07:12:58.825Z,10560.00
2019-05-12T07:14:01.292Z,11196.00
2019-05-12T07:14:55.626Z,9832.00
2019-05-12T07:15:50.485Z,9940.00
2019-05-12T07:16:55.055Z,11120.00
2019-05-12T07:17:50.519Z,11240.00
2019-05-12T07:18:50.542Z,11308.00
2019-05-12T07:19:56.354Z,11788.00
2019-05-12T07:20:50.584Z,11892.00
2019-05-12T07:21:55.405Z,11848.00
2019-05-12T07:22:50.613Z,11724.00
2019-05-12T07:23:50.629Z,11624.00
2019-05-12T07:24:52.803Z,14460.00
2019-05-12T07:25:50.660Z,11480.00
2019-05-12T07:26:56.320Z,13108.00
2019-05-12T07:27:54.905Z,12048.00
2019-05-12T07:28:50.742Z,13548.00
2019-05-12T07:29:50.742Z,11800.00
2019-05-12T07:30:50.753Z,10120.00
2019-05-12T07:31:50.780Z,9696.00
2019-05-12T07:32:51.233Z,9376.00
2019-05-12T07:33:54.006Z,9096.00
2019-05-12T07:34:50.831Z,8164.00
2019-05-12T07:35:53.465Z,7912.00
2019-05-12T07:36:50.873Z,8936.00
2019-05-12T07:37:50.891Z,9204.00
2019-05-12T07:38:55.853Z,9356.00
2019-05-12T07:39:50.927Z,10172.00
2019-05-12T07:40:51.027Z,10928.00
2019-05-12T07:41:52.164Z,12968.00
2019-05-12T07:42:50.999Z,13280.00
2019-05-12T07:43:56.693Z,12420.00
2019-05-12T07:44:51.021Z,11700.00
2019-05-12T07:45:53.938Z,13812.00
2019-05-12T07:46:51.068Z,13764.00
2019-05-12T07:47:51.075Z,14388.00
2019-05-12T07:48:51.105Z,12832.00
2019-05-12T07:49:53.610Z,12012.00
2019-05-12T07:50:56.458Z,8676.00
2019-05-12T07:51:51.215Z,8284.00
2019-05-12T07:52:51.223Z,8132.00
2019-05-12T07:53:55.390Z,10948.00
2019-05-12T07:54:53.713Z,10864.00
2019-05-12T07:55:53.180Z,10652.00
2019-05-12T07:56:53.805Z,11160.00
2019-05-12T07:57:57.896Z,11328.00
2019-05-12T07:58:56.496Z,11468.00
2019-05-12T07:59:51.300Z,11992.00
2019-05-12T08:00:53.944Z,12044.00
2019-05-12T08:01:54.332Z,12088.00
2019-05-12T08:02:53.557Z,12716.00
2019-05-12T08:03:57.329Z,12460.00
2019-05-12T08:04:51.399Z,12216.00
2019-05-12T08:05:56.343Z,11212.00
2019-05-12T08:06:53.688Z,11020.00
2019-05-12T08:07:53.452Z,13480.00
2019-05-12T08:08:58.147Z,13484.00
2019-05-12T08:09:53.545Z,11580.00
2019-05-12T08:10:55.661Z,9304.00
2019-05-12T08:11:53.909Z,9000.00
2019-05-12T08:12:59.566Z,8224.00
2019-05-12T08:13:54.103Z,9716.00
2019-05-12T08:14:51.604Z,9928.00
2019-05-12T08:15:55.604Z,10484.00
2019-05-12T08:16:54.112Z,11060.00
2019-05-12T08:17:55.306Z,11556.00
2019-05-12T08:18:53.491Z,11404.00
2019-05-12T08:19:53.618Z,10412.00
2019-05-12T08:20:53.779Z,10176.00
2019-05-12T08:21:53.613Z,12032.00
2019-05-12T08:22:54.014Z,11832.00
2019-05-12T08:23:53.450Z,10196.00
2019-05-12T08:24:53.776Z,9948.00
2019-05-12T08:25:53.838Z,10472.00
2019-05-12T08:26:59.706Z,11296.00
2019-05-12T08:27:59.380Z,10412.00
2019-05-12T08:28:53.541Z,10392.00
2019-05-12T08:30:00.834Z,9864.00
2019-05-12T08:30:52.708Z,10884.00
2019-05-12T08:31:54.617Z,11932.00
2019-05-12T08:32:56.344Z,11260.00
2019-05-12T08:33:53.787Z,11096.00
2019-05-12T08:34:54.134Z,9260.00
2019-05-12T08:35:52.020Z,9552.00
2019-05-12T08:36:56.725Z,7168.00
2019-05-12T08:37:54.332Z,6300.00
2019-05-12T08:38:53.634Z,6108.00
2019-05-12T08:40:02.174Z,6996.00
2019-05-12T08:40:54.205Z,7584.00
2019-05-12T08:41:53.483Z,8044.00
2019-05-12T08:42:53.993Z,8796.00
2019-05-12T08:43:57.884Z,9628.00
2019-05-12T08:44:54.117Z,11036.00
2019-05-12T08:45:53.596Z,12544.00
2019-05-12T08:46:56.358Z,12328.00
2019-05-12T08:47:54.154Z,12920.00
2019-05-12T08:48:57.840Z,11700.00
2019-05-12T08:49:58.292Z,11872.00
2019-05-12T08:50:54.532Z,12740.00
2019-05-12T08:51:55.754Z,12224.00
2019-05-12T08:52:53.838Z,9892.00
2019-05-12T08:53:53.921Z,10356.00
2019-05-12T08:54:53.658Z,9248.00
2019-05-12T08:55:53.843Z,9144.00
2019-05-12T08:56:59.355Z,10704.00
2019-05-12T08:57:54.192Z,12080.00
2019-05-12T08:58:54.358Z,13540.00
2019-05-12T08:59:54.596Z,13720.00
2019-05-12T09:00:54.747Z,12664.00
2019-05-12T09:01:54.018Z,12388.00
2019-05-12T09:02:53.930Z,10316.00
2019-05-12T09:03:53.349Z,10836.00
2019-05-12T09:04:55.559Z,10580.00
2019-05-12T09:05:53.688Z,10568.00
2019-05-12T09:06:56.383Z,9976.00
2019-05-12T09:07:54.072Z,9436.00
2019-05-12T09:08:54.229Z,8816.00
2019-05-12T09:09:53.343Z,8468.00
2019-05-12T09:10:55.348Z,8216.00
2019-05-12T09:11:54.213Z,8076.00
2019-05-12T09:12:54.156Z,8076.00
2019-05-12T09:14:00.196Z,8036.00
2019-05-12T09:14:54.569Z,7728.00
2019-05-12T09:15:54.139Z,7888.00
2019-05-12T09:16:53.712Z,8416.00
2019-05-12T09:17:56.878Z,9404.00
2019-05-12T09:18:55.142Z,10608.00
2019-05-12T09:19:54.986Z,11320.00
2019-05-12T09:20:55.503Z,11172.00
2019-05-12T09:21:54.217Z,11476.00
2019-05-12T09:23:00.663Z,11376.00
2019-05-12T09:23:55.854Z,10964.00
2019-05-12T09:24:53.413Z,10652.00
2019-05-12T09:25:53.721Z,11080.00
2019-05-12T09:26:53.842Z,10444.00
2019-05-12T09:27:54.241Z,8616.00
2019-05-12T09:28:54.306Z,10204.00
2019-05-12T09:29:53.995Z,9304.00
2019-05-12T09:30:54.354Z,9468.00
2019-05-12T09:31:53.222Z,9356.00
2019-05-12T09:32:55.984Z,9848.00
2019-05-12T09:33:54.708Z,10372.00
2019-05-12T09:34:58.111Z,11004.00
2019-05-12T09:35:54.043Z,11732.00
2019-05-12T09:36:59.610Z,12056.00
2019-05-12T09:37:53.594Z,12036.00
2019-05-12T09:39:01.299Z,12616.00
2019-05-12T09:39:53.846Z,12308.00
2019-05-12T09:41:00.733Z,11488.00
2019-05-12T09:41:55.292Z,11052.00
2019-05-12T09:42:53.356Z,11260.00
2019-05-12T09:43:53.507Z,10108.00
2019-05-12T09:44:53.956Z,10392.00
2019-05-12T09:45:56.474Z,10300.00
2019-05-12T09:46:53.536Z,10484.00
2019-05-12T09:47:53.990Z,9824.00
2019-05-12T09:48:55.093Z,8780.00
2019-05-12T09:49:53.620Z,9732.00
2019-05-12T09:51:00.365Z,10488.00
2019-05-12T09:51:54.385Z,11904.00
2019-05-12T09:52:55.531Z,12572.00
2019-05-12T09:53:55.501Z,11668.00
2019-05-12T09:54:53.537Z,11760.00
2019-05-12T09:55:53.904Z,12088.00
2019-05-12T09:56:55.422Z,10872.00
2019-05-12T09:57:54.394Z,10256.00
2019-05-12T09:59:01.480Z,10096.00
2019-05-12T09:59:58.262Z,10060.00
2019-05-12T10:00:54.350Z,9896.00
2019-05-12T10:01:54.184Z,9468.00
2019-05-12T10:02:59.381Z,9496.00
2019-05-12T10:03:54.427Z,10012.00
2019-05-12T10:04:56.349Z,10216.00
2019-05-12T10:05:53.666Z,10024.00
2019-05-12T10:06:53.672Z,10980.00
2019-05-12T10:07:53.706Z,11036.00
2019-05-12T10:08:54.884Z,12540.00
2019-05-12T10:09:55.032Z,12888.00
2019-05-12T10:10:53.779Z,13056.00
2019-05-12T10:12:00.309Z,12804.00
2019-05-12T10:12:53.808Z,12156.00
2019-05-12T10:13:54.352Z,11312.00
2019-05-12T10:14:53.897Z,10740.00
2019-05-12T10:15:58.683Z,9204.00
2019-05-12T10:16:53.866Z,8928.00
2019-05-12T10:17:54.058Z,8780.00
2019-05-12T10:18:53.929Z,8528.00
2019-05-12T10:19:57.864Z,8356.00
2019-05-12T10:20:53.961Z,8652.00
2019-05-12T10:21:55.183Z,8048.00
2019-05-12T10:22:54.292Z,7712.00
2019-05-12T10:24:00.647Z,7596.00
2019-05-12T10:24:57.877Z,7536.00
2019-05-12T10:25:54.028Z,7548.00
2019-05-12T10:26:54.277Z,7692.00
2019-05-12T10:27:54.091Z,8004.00
2019-05-12T10:28:58.198Z,8476.00
2019-05-12T10:29:54.272Z,9212.00
2019-05-12T10:30:56.933Z,10052.00
2019-05-12T10:31:54.143Z,10580.00
2019-05-12T10:32:54.182Z,11428.00
2019-05-12T10:33:57.158Z,12080.00
2019-05-12T10:34:54.192Z,11272.00
2019-05-12T10:35:54.293Z,10516.00
2019-05-12T10:36:54.257Z,10860.00
2019-05-12T10:37:54.255Z,9848.00
2019-05-12T10:38:54.284Z,10092.00
2019-05-12T10:39:54.291Z,10932.00
2019-05-12T10:40:54.304Z,9720.00
2019-05-12T10:41:54.815Z,10332.00
2019-05-12T10:42:54.365Z,11600.00
2019-05-12T10:43:57.807Z,10952.00
2019-05-12T10:44:56.565Z,9428.00
2019-05-12T10:45:54.438Z,8156.00
2019-05-12T10:46:54.411Z,7308.00
2019-05-12T10:47:54.458Z,7364.00
2019-05-12T10:48:54.454Z,7596.00
2019-05-12T10:49:54.485Z,7856.00
2019-05-12T10:50:54.491Z,8192.00
2019-05-12T10:51:54.511Z,8572.00
2019-05-12T10:52:54.537Z,9248.00
2019-05-12T10:53:57.404Z,9344.00
2019-05-12T10:54:54.587Z,8664.00
2019-05-12T10:55:54.596Z,9316.00
2019-05-12T10:56:54.858Z,10608.00
2019-05-12T10:58:01.586Z,11928.00
2019-05-12T10:58:54.673Z,11308.00
2019-05-12T10:59:54.661Z,11436.00
2019-05-12T11:00:58.812Z,12700.00
2019-05-12T11:01:54.691Z,11264.00
2019-05-12T11:02:54.716Z,10880.00
2019-05-12T11:03:54.757Z,11044.00
2019-05-12T11:04:54.750Z,11372.00
2019-05-12T11:06:02.332Z,12696.00
2019-05-12T11:06:54.785Z,10588.00
2019-05-12T11:07:54.834Z,10180.00
2019-05-12T11:08:54.827Z,9652.00
2019-05-12T11:09:54.842Z,8936.00
2019-05-12T11:10:57.680Z,8424.00
2019-05-12T11:11:54.895Z,9324.00
2019-05-12T11:12:59.212Z,8292.00
2019-05-12T11:13:54.972Z,7212.00
2019-05-12T11:14:54.935Z,8464.00
2019-05-12T11:15:54.950Z,8428.00
2019-05-12T11:16:54.972Z,8468.00
2019-05-12T11:17:54.993Z,8788.00
2019-05-12T11:18:55.013Z,8836.00
2019-05-12T11:19:55.030Z,9760.00
2019-05-12T11:20:55.046Z,10004.00
2019-05-12T11:21:55.085Z,10784.00
2019-05-12T11:22:55.107Z,10920.00
2019-05-12T11:23:55.100Z,10672.00
2019-05-12T11:24:55.872Z,12060.00
2019-05-12T11:25:55.168Z,10308.00
2019-05-12T11:26:55.160Z,9504.00
2019-05-12T11:27:55.174Z,9220.00
2019-05-12T11:28:55.192Z,9416.00
2019-05-12T11:29:55.235Z,9900.00
2019-05-12T11:30:55.230Z,10092.00
2019-05-12T11:31:55.250Z,10188.00
2019-05-12T11:32:55.264Z,10132.00
2019-05-12T11:33:55.284Z,9768.00
2019-05-12T11:34:55.315Z,9384.00
2019-05-12T11:35:55.324Z,8912.00
2019-05-12T11:36:55.336Z,8632.00
2019-05-12T11:37:55.365Z,8316.00
2019-05-12T11:38:55.383Z,7936.00
2019-05-12T11:39:55.394Z,8732.00
2019-05-12T11:40:55.419Z,9108.00
2019-05-12T11:41:55.533Z,8748.00
2019-05-12T11:42:59.837Z,8476.00
2019-05-12T11:43:55.498Z,8444.00
2019-05-12T11:44:55.486Z,8752.00
2019-05-12T11:45:55.510Z,9204.00
2019-05-12T11:46:55.522Z,9788.00
2019-05-12T11:47:59.122Z,10572.00
2019-05-12T11:48:55.563Z,11420.00
2019-05-12T11:49:58.541Z,12152.00
2019-05-12T11:50:55.635Z,12368.00
2019-05-12T11:51:55.647Z,12764.00
2019-05-12T11:52:55.643Z,13596.00
2019-05-12T11:53:55.654Z,13388.00
2019-05-12T11:54:55.728Z,13300.00
2019-05-12T11:55:55.747Z,13332.00
2019-05-12T11:56:55.745Z,11856.00
2019-05-12T11:58:00.459Z,11584.00
2019-05-12T11:58:55.758Z,12088.00
2019-05-12T12:00:02.011Z,9788.00
2019-05-12T12:00:58.650Z,9024.00
2019-05-12T12:01:56.167Z,9264.00
2019-05-12T12:02:55.833Z,7100.00
2019-05-12T12:03:55.849Z,5988.00
2019-05-12T12:04:55.858Z,7332.00
2019-05-12T12:05:55.932Z,6052.00
2019-05-12T12:06:55.926Z,5716.00
2019-05-12T12:07:56.194Z,6184.00
2019-05-12T12:08:55.946Z,7984.00
2019-05-12T12:09:59.484Z,9332.00
2019-05-12T12:10:56.005Z,9752.00
2019-05-12T12:12:02.476Z,10396.00
2019-05-12T12:12:56.014Z,11604.00
2019-05-12T12:14:00.415Z,12584.00
2019-05-12T12:14:56.050Z,12800.00
2019-05-12T12:16:00.385Z,12500.00
2019-05-12T12:16:56.091Z,10796.00